sensor_id;sensor_type;location;lat;lon;timestamp;P1;durP1;ratioP1;P2;durP2;ratioP2
10226;SDS011;15634;48.766;2.272;2023-08-21T00:00:40;8.00;;;3.00;;
10226;SDS011;15634;48.766;2.272;2023-08-21T00:03:08;5.68;;;2.60;;
10226;SDS011;15634;48.766;2.272;2023-08-21T00:05:35;7.68;;;2.78;;
10226;SDS011;15634;48.766;2.272;2023-08-21T00:08:01;9.63;;;2.65;;
10226;SDS011;15634;48.766;2.272;2023-08-21T00:10:29;6.80;;;2.65;;
10226;SDS011;15634;48.766;2.272;2023-08-21T00:12:56;7.22;;;2.60;;
10226;SDS011;15634;48.766;2.272;2023-08-21T00:15:23;7.22;;;2.90;;
10226;SDS011;15634;48.766;2.272;2023-08-21T00:17:50;7.88;;;2.35;;
10226;SDS011;15634;48.766;2.272;2023-08-21T00:20:18;6.63;;;2.55;;
10226;SDS011;15634;48.766;2.272;2023-08-21T00:22:45;6.75;;;2.65;;
10226;SDS011;15634;48.766;2.272;2023-08-21T00:25:11;5.28;;;2.50;;
10226;SDS011;15634;48.766;2.272;2023-08-21T00:27:38;7.70;;;2.50;;
10226;SDS011;15634;48.766;2.272;2023-08-21T00:30:05;6.85;;;2.70;;
10226;SDS011;15634;48.766;2.272;2023-08-21T00:32:32;4.03;;;2.28;;
10226;SDS011;15634;48.766;2.272;2023-08-21T00:34:59;8.85;;;2.30;;
10226;SDS011;15634;48.766;2.272;2023-08-21T00:37:27;6.72;;;2.50;;
10226;SDS011;15634;48.766;2.272;2023-08-21T00:39:53;7.40;;;2.38;;
10226;SDS011;15634;48.766;2.272;2023-08-21T00:42:20;8.82;;;2.55;;
10226;SDS011;15634;48.766;2.272;2023-08-21T00:44:47;7.63;;;2.50;;
10226;SDS011;15634;48.766;2.272;2023-08-21T00:47:13;4.70;;;2.00;;
10226;SDS011;15634;48.766;2.272;2023-08-21T00:49:40;5.05;;;2.53;;
10226;SDS011;15634;48.766;2.272;2023-08-21T00:52:06;7.38;;;2.30;;
10226;SDS011;15634;48.766;2.272;2023-08-21T00:54:35;5.32;;;2.10;;
10226;SDS011;15634;48.766;2.272;2023-08-21T00:57:01;6.30;;;2.33;;
10226;SDS011;15634;48.766;2.272;2023-08-21T00:59:28;4.72;;;2.53;;
10226;SDS011;15634;48.766;2.272;2023-08-21T01:01:55;7.05;;;2.30;;
10226;SDS011;15634;48.766;2.272;2023-08-21T01:04:22;9.02;;;2.72;;
10226;SDS011;15634;48.766;2.272;2023-08-21T01:06:49;6.57;;;2.58;;
10226;SDS011;15634;48.766;2.272;2023-08-21T01:09:17;5.43;;;2.30;;
10226;SDS011;15634;48.766;2.272;2023-08-21T01:11:51;7.25;;;2.40;;
10226;SDS011;15634;48.766;2.272;2023-08-21T01:14:24;7.35;;;2.55;;
10226;SDS011;15634;48.766;2.272;2023-08-21T01:16:55;5.60;;;2.50;;
10226;SDS011;15634;48.766;2.272;2023-08-21T01:19:26;5.38;;;2.30;;
10226;SDS011;15634;48.766;2.272;2023-08-21T01:21:56;9.25;;;2.70;;
10226;SDS011;15634;48.766;2.272;2023-08-21T01:24:25;10.48;;;2.35;;
10226;SDS011;15634;48.766;2.272;2023-08-21T01:26:52;5.15;;;1.90;;
10226;SDS011;15634;48.766;2.272;2023-08-21T01:29:18;4.47;;;2.20;;
10226;SDS011;15634;48.766;2.272;2023-08-21T01:31:47;5.30;;;2.20;;
10226;SDS011;15634;48.766;2.272;2023-08-21T01:34:17;5.95;;;2.15;;
10226;SDS011;15634;48.766;2.272;2023-08-21T01:36:43;7.70;;;2.45;;
10226;SDS011;15634;48.766;2.272;2023-08-21T01:39:11;5.80;;;2.22;;
10226;SDS011;15634;48.766;2.272;2023-08-21T01:41:41;7.18;;;2.30;;
10226;SDS011;15634;48.766;2.272;2023-08-21T01:44:07;8.38;;;2.70;;
10226;SDS011;15634;48.766;2.272;2023-08-21T01:46:34;5.45;;;2.42;;
10226;SDS011;15634;48.766;2.272;2023-08-21T01:49:01;6.82;;;2.65;;
10226;SDS011;15634;48.766;2.272;2023-08-21T01:51:27;9.02;;;2.50;;
10226;SDS011;15634;48.766;2.272;2023-08-21T01:53:54;6.72;;;2.38;;
10226;SDS011;15634;48.766;2.272;2023-08-21T01:56:20;5.55;;;2.20;;
10226;SDS011;15634;48.766;2.272;2023-08-21T01:58:49;5.82;;;2.22;;
10226;SDS011;15634;48.766;2.272;2023-08-21T02:01:16;8.63;;;2.92;;
10226;SDS011;15634;48.766;2.272;2023-08-21T02:03:43;4.63;;;2.13;;
10226;SDS011;15634;48.766;2.272;2023-08-21T02:06:09;7.32;;;2.30;;
10226;SDS011;15634;48.766;2.272;2023-08-21T02:08:36;5.07;;;2.35;;
10226;SDS011;15634;48.766;2.272;2023-08-21T02:11:03;9.13;;;2.35;;
10226;SDS011;15634;48.766;2.272;2023-08-21T02:13:30;6.32;;;2.65;;
10226;SDS011;15634;48.766;2.272;2023-08-21T02:15:59;8.80;;;2.60;;
10226;SDS011;15634;48.766;2.272;2023-08-21T02:18:26;8.98;;;2.30;;
10226;SDS011;15634;48.766;2.272;2023-08-21T02:20:52;6.93;;;2.38;;
10226;SDS011;15634;48.766;2.272;2023-08-21T02:23:19;9.90;;;2.70;;
10226;SDS011;15634;48.766;2.272;2023-08-21T02:25:46;5.25;;;2.50;;
10226;SDS011;15634;48.766;2.272;2023-08-21T02:28:14;6.20;;;2.35;;
10226;SDS011;15634;48.766;2.272;2023-08-21T02:30:41;7.72;;;2.30;;
10226;SDS011;15634;48.766;2.272;2023-08-21T02:33:09;6.63;;;2.53;;
10226;SDS011;15634;48.766;2.272;2023-08-21T02:35:36;8.77;;;2.45;;
10226;SDS011;15634;48.766;2.272;2023-08-21T02:38:02;9.02;;;2.33;;
10226;SDS011;15634;48.766;2.272;2023-08-21T02:40:29;6.82;;;2.25;;
10226;SDS011;15634;48.766;2.272;2023-08-21T02:42:56;6.32;;;2.22;;
10226;SDS011;15634;48.766;2.272;2023-08-21T02:45:23;8.85;;;2.20;;
10226;SDS011;15634;48.766;2.272;2023-08-21T02:47:49;8.25;;;2.63;;
10226;SDS011;15634;48.766;2.272;2023-08-21T02:50:17;5.55;;;2.50;;
10226;SDS011;15634;48.766;2.272;2023-08-21T02:52:44;7.63;;;2.33;;
10226;SDS011;15634;48.766;2.272;2023-08-21T02:55:10;7.85;;;2.28;;
10226;SDS011;15634;48.766;2.272;2023-08-21T02:57:37;6.22;;;2.42;;
10226;SDS011;15634;48.766;2.272;2023-08-21T03:00:04;6.78;;;2.38;;
10226;SDS011;15634;48.766;2.272;2023-08-21T03:02:32;5.32;;;2.42;;
10226;SDS011;15634;48.766;2.272;2023-08-21T03:04:59;7.13;;;2.40;;
10226;SDS011;15634;48.766;2.272;2023-08-21T03:07:27;6.82;;;2.33;;
10226;SDS011;15634;48.766;2.272;2023-08-21T03:09:54;4.85;;;2.13;;
10226;SDS011;15634;48.766;2.272;2023-08-21T03:12:20;6.35;;;2.50;;
10226;SDS011;15634;48.766;2.272;2023-08-21T03:14:47;7.00;;;2.88;;
10226;SDS011;15634;48.766;2.272;2023-08-21T03:17:14;8.00;;;2.70;;
10226;SDS011;15634;48.766;2.272;2023-08-21T03:19:41;5.53;;;2.22;;
10226;SDS011;15634;48.766;2.272;2023-08-21T03:22:07;6.47;;;2.33;;
10226;SDS011;15634;48.766;2.272;2023-08-21T03:24:35;6.03;;;2.22;;
10226;SDS011;15634;48.766;2.272;2023-08-21T03:27:02;8.18;;;2.80;;
10226;SDS011;15634;48.766;2.272;2023-08-21T03:29:29;7.20;;;2.63;;
10226;SDS011;15634;48.766;2.272;2023-08-21T03:31:56;7.20;;;2.45;;
10226;SDS011;15634;48.766;2.272;2023-08-21T03:34:22;7.60;;;2.22;;
10226;SDS011;15634;48.766;2.272;2023-08-21T03:36:49;9.00;;;3.00;;
10226;SDS011;15634;48.766;2.272;2023-08-21T03:39:16;7.88;;;2.47;;
10226;SDS011;15634;48.766;2.272;2023-08-21T03:41:44;5.30;;;2.15;;
10226;SDS011;15634;48.766;2.272;2023-08-21T03:44:10;4.97;;;2.42;;
10226;SDS011;15634;48.766;2.272;2023-08-21T03:46:37;6.38;;;2.42;;
10226;SDS011;15634;48.766;2.272;2023-08-21T03:49:04;6.38;;;2.53;;
10226;SDS011;15634;48.766;2.272;2023-08-21T03:51:31;9.45;;;2.55;;
10226;SDS011;15634;48.766;2.272;2023-08-21T03:53:58;5.88;;;2.47;;
10226;SDS011;15634;48.766;2.272;2023-08-21T03:56:25;10.30;;;3.10;;
10226;SDS011;15634;48.766;2.272;2023-08-21T03:58:53;7.90;;;2.60;;
10226;SDS011;15634;48.766;2.272;2023-08-21T04:01:20;7.60;;;2.40;;
10226;SDS011;15634;48.766;2.272;2023-08-21T04:03:46;6.78;;;2.25;;
10226;SDS011;15634;48.766;2.272;2023-08-21T04:06:13;8.90;;;2.70;;
10226;SDS011;15634;48.766;2.272;2023-08-21T04:08:39;7.45;;;2.70;;
10226;SDS011;15634;48.766;2.272;2023-08-21T04:11:06;5.35;;;2.55;;
10226;SDS011;15634;48.766;2.272;2023-08-21T04:13:33;6.25;;;2.45;;
10226;SDS011;15634;48.766;2.272;2023-08-21T04:16:01;7.15;;;2.50;;
10226;SDS011;15634;48.766;2.272;2023-08-21T04:18:27;7.03;;;2.70;;
10226;SDS011;15634;48.766;2.272;2023-08-21T04:20:54;5.72;;;2.60;;
10226;SDS011;15634;48.766;2.272;2023-08-21T04:23:20;6.35;;;2.47;;
10226;SDS011;15634;48.766;2.272;2023-08-21T04:25:47;6.95;;;2.60;;
10226;SDS011;15634;48.766;2.272;2023-08-21T04:28:14;5.13;;;2.30;;
10226;SDS011;15634;48.766;2.272;2023-08-21T04:30:40;7.05;;;2.47;;
10226;SDS011;15634;48.766;2.272;2023-08-21T04:33:08;5.80;;;2.50;;
10226;SDS011;15634;48.766;2.272;2023-08-21T04:35:38;4.95;;;2.15;;
10226;SDS011;15634;48.766;2.272;2023-08-21T04:38:05;6.60;;;2.45;;
10226;SDS011;15634;48.766;2.272;2023-08-21T04:40:32;7.47;;;2.60;;
10226;SDS011;15634;48.766;2.272;2023-08-21T04:42:59;6.18;;;2.72;;
10226;SDS011;15634;48.766;2.272;2023-08-21T04:45:25;6.60;;;2.30;;
10226;SDS011;15634;48.766;2.272;2023-08-21T04:47:52;6.53;;;2.95;;
10226;SDS011;15634;48.766;2.272;2023-08-21T04:50:20;7.53;;;2.53;;
10226;SDS011;15634;48.766;2.272;2023-08-21T04:52:46;9.55;;;2.95;;
10226;SDS011;15634;48.766;2.272;2023-08-21T04:55:14;5.45;;;2.65;;
10226;SDS011;15634;48.766;2.272;2023-08-21T04:57:40;5.63;;;2.50;;
10226;SDS011;15634;48.766;2.272;2023-08-21T05:00:07;7.20;;;2.90;;
10226;SDS011;15634;48.766;2.272;2023-08-21T05:02:35;6.55;;;2.80;;
10226;SDS011;15634;48.766;2.272;2023-08-21T05:05:02;8.32;;;2.70;;
10226;SDS011;15634;48.766;2.272;2023-08-21T05:07:31;6.72;;;2.67;;
10226;SDS011;15634;48.766;2.272;2023-08-21T05:09:58;7.70;;;2.83;;
10226;SDS011;15634;48.766;2.272;2023-08-21T05:12:25;4.70;;;2.42;;
10226;SDS011;15634;48.766;2.272;2023-08-21T05:14:52;7.88;;;2.58;;
10226;SDS011;15634;48.766;2.272;2023-08-21T05:17:19;10.43;;;2.97;;
10226;SDS011;15634;48.766;2.272;2023-08-21T05:19:45;4.00;;;2.22;;
10226;SDS011;15634;48.766;2.272;2023-08-21T05:22:12;7.25;;;2.67;;
10226;SDS011;15634;48.766;2.272;2023-08-21T05:24:40;6.22;;;2.63;;
10226;SDS011;15634;48.766;2.272;2023-08-21T05:27:07;7.50;;;2.80;;
10226;SDS011;15634;48.766;2.272;2023-08-21T05:29:33;5.22;;;2.75;;
10226;SDS011;15634;48.766;2.272;2023-08-21T05:32:00;7.13;;;2.50;;
10226;SDS011;15634;48.766;2.272;2023-08-21T05:34:27;6.88;;;2.40;;
10226;SDS011;15634;48.766;2.272;2023-08-21T05:36:53;7.60;;;2.83;;
10226;SDS011;15634;48.766;2.272;2023-08-21T05:39:20;9.80;;;3.10;;
10226;SDS011;15634;48.766;2.272;2023-08-21T05:41:48;4.38;;;2.60;;
10226;SDS011;15634;48.766;2.272;2023-08-21T05:44:15;6.82;;;2.85;;
10226;SDS011;15634;48.766;2.272;2023-08-21T05:46:41;8.18;;;3.20;;
10226;SDS011;15634;48.766;2.272;2023-08-21T05:49:08;8.43;;;2.72;;
10226;SDS011;15634;48.766;2.272;2023-08-21T05:51:35;9.07;;;3.20;;
10226;SDS011;15634;48.766;2.272;2023-08-21T05:54:01;7.97;;;3.17;;
10226;SDS011;15634;48.766;2.272;2023-08-21T05:56:28;6.15;;;2.72;;
10226;SDS011;15634;48.766;2.272;2023-08-21T05:58:56;9.15;;;2.97;;
10226;SDS011;15634;48.766;2.272;2023-08-21T06:01:23;7.22;;;2.40;;
10226;SDS011;15634;48.766;2.272;2023-08-21T06:03:49;5.53;;;2.65;;
10226;SDS011;15634;48.766;2.272;2023-08-21T06:06:16;7.35;;;2.80;;
10226;SDS011;15634;48.766;2.272;2023-08-21T06:08:43;9.27;;;2.78;;
10226;SDS011;15634;48.766;2.272;2023-08-21T06:11:09;6.93;;;2.38;;
10226;SDS011;15634;48.766;2.272;2023-08-21T06:13:36;7.03;;;2.72;;
10226;SDS011;15634;48.766;2.272;2023-08-21T06:16:04;6.75;;;2.50;;
10226;SDS011;15634;48.766;2.272;2023-08-21T06:18:31;6.75;;;2.65;;
10226;SDS011;15634;48.766;2.272;2023-08-21T06:20:57;8.95;;;2.63;;
10226;SDS011;15634;48.766;2.272;2023-08-21T06:23:24;6.75;;;2.83;;
10226;SDS011;15634;48.766;2.272;2023-08-21T06:25:51;6.72;;;2.58;;
10226;SDS011;15634;48.766;2.272;2023-08-21T06:28:17;6.22;;;2.40;;
10226;SDS011;15634;48.766;2.272;2023-08-21T06:30:44;9.88;;;2.97;;
10226;SDS011;15634;48.766;2.272;2023-08-21T06:33:12;7.03;;;2.47;;
10226;SDS011;15634;48.766;2.272;2023-08-21T06:35:39;9.80;;;3.08;;
10226;SDS011;15634;48.766;2.272;2023-08-21T06:38:06;7.07;;;2.85;;
10226;SDS011;15634;48.766;2.272;2023-08-21T06:40:32;8.82;;;2.60;;
10226;SDS011;15634;48.766;2.272;2023-08-21T06:42:59;10.52;;;2.78;;
10226;SDS011;15634;48.766;2.272;2023-08-21T06:45:26;9.52;;;3.03;;
10226;SDS011;15634;48.766;2.272;2023-08-21T06:47:55;7.25;;;2.63;;
10226;SDS011;15634;48.766;2.272;2023-08-21T06:50:23;6.75;;;2.50;;
10226;SDS011;15634;48.766;2.272;2023-08-21T06:52:50;6.53;;;2.35;;
10226;SDS011;15634;48.766;2.272;2023-08-21T06:55:16;10.98;;;2.85;;
10226;SDS011;15634;48.766;2.272;2023-08-21T06:57:43;6.22;;;2.63;;
10226;SDS011;15634;48.766;2.272;2023-08-21T07:00:10;10.55;;;3.05;;
10226;SDS011;15634;48.766;2.272;2023-08-21T07:02:37;6.03;;;2.72;;
10226;SDS011;15634;48.766;2.272;2023-08-21T07:05:04;8.63;;;2.75;;
10226;SDS011;15634;48.766;2.272;2023-08-21T07:07:32;8.98;;;2.70;;
10226;SDS011;15634;48.766;2.272;2023-08-21T07:09:59;9.75;;;2.60;;
10226;SDS011;15634;48.766;2.272;2023-08-21T07:12:25;7.10;;;2.58;;
10226;SDS011;15634;48.766;2.272;2023-08-21T07:14:52;8.88;;;2.90;;
10226;SDS011;15634;48.766;2.272;2023-08-21T07:17:19;7.50;;;3.00;;
10226;SDS011;15634;48.766;2.272;2023-08-21T07:19:45;8.27;;;3.20;;
10226;SDS011;15634;48.766;2.272;2023-08-21T07:22:14;7.82;;;2.85;;
10226;SDS011;15634;48.766;2.272;2023-08-21T07:24:42;11.40;;;2.58;;
10226;SDS011;15634;48.766;2.272;2023-08-21T07:27:08;6.63;;;2.35;;
10226;SDS011;15634;48.766;2.272;2023-08-21T07:29:35;8.20;;;2.50;;
10226;SDS011;15634;48.766;2.272;2023-08-21T07:32:01;6.63;;;2.28;;
10226;SDS011;15634;48.766;2.272;2023-08-21T07:34:28;8.02;;;2.78;;
10226;SDS011;15634;48.766;2.272;2023-08-21T07:36:55;7.78;;;2.60;;
10226;SDS011;15634;48.766;2.272;2023-08-21T07:39:22;6.63;;;2.50;;
10226;SDS011;15634;48.766;2.272;2023-08-21T07:41:50;6.13;;;2.50;;
10226;SDS011;15634;48.766;2.272;2023-08-21T07:44:18;10.93;;;2.60;;
10226;SDS011;15634;48.766;2.272;2023-08-21T07:46:45;7.53;;;2.65;;
10226;SDS011;15634;48.766;2.272;2023-08-21T07:49:12;10.20;;;2.42;;
10226;SDS011;15634;48.766;2.272;2023-08-21T07:51:38;8.43;;;2.47;;
10226;SDS011;15634;48.766;2.272;2023-08-21T07:54:05;7.75;;;2.53;;
10226;SDS011;15634;48.766;2.272;2023-08-21T07:56:32;4.68;;;2.40;;
10226;SDS011;15634;48.766;2.272;2023-08-21T07:59:02;11.48;;;2.85;;
10226;SDS011;15634;48.766;2.272;2023-08-21T08:01:29;5.40;;;2.50;;
10226;SDS011;15634;48.766;2.272;2023-08-21T08:03:55;7.63;;;2.83;;
10226;SDS011;15634;48.766;2.272;2023-08-21T08:06:22;7.38;;;2.35;;
10226;SDS011;15634;48.766;2.272;2023-08-21T08:08:49;8.20;;;2.47;;
10226;SDS011;15634;48.766;2.272;2023-08-21T08:11:16;7.45;;;2.55;;
10226;SDS011;15634;48.766;2.272;2023-08-21T08:13:42;7.13;;;2.67;;
10226;SDS011;15634;48.766;2.272;2023-08-21T08:16:10;7.10;;;2.50;;
10226;SDS011;15634;48.766;2.272;2023-08-21T08:18:37;7.32;;;2.92;;
10226;SDS011;15634;48.766;2.272;2023-08-21T08:21:04;8.77;;;2.58;;
10226;SDS011;15634;48.766;2.272;2023-08-21T08:23:31;9.48;;;2.60;;
10226;SDS011;15634;48.766;2.272;2023-08-21T08:25:58;9.35;;;2.50;;
10226;SDS011;15634;48.766;2.272;2023-08-21T08:28:24;6.45;;;2.25;;
10226;SDS011;15634;48.766;2.272;2023-08-21T08:30:51;6.88;;;2.80;;
10226;SDS011;15634;48.766;2.272;2023-08-21T08:33:19;6.40;;;2.15;;
10226;SDS011;15634;48.766;2.272;2023-08-21T08:35:46;8.15;;;2.10;;
10226;SDS011;15634;48.766;2.272;2023-08-21T08:38:12;10.95;;;2.65;;
10226;SDS011;15634;48.766;2.272;2023-08-21T08:40:42;8.43;;;2.60;;
10226;SDS011;15634;48.766;2.272;2023-08-21T08:43:10;8.50;;;2.30;;
10226;SDS011;15634;48.766;2.272;2023-08-21T08:45:37;4.90;;;2.15;;
10226;SDS011;15634;48.766;2.272;2023-08-21T08:48:04;6.13;;;1.92;;
10226;SDS011;15634;48.766;2.272;2023-08-21T08:50:33;11.38;;;2.67;;
10226;SDS011;15634;48.766;2.272;2023-08-21T08:53:00;8.90;;;2.15;;
10226;SDS011;15634;48.766;2.272;2023-08-21T08:55:28;7.47;;;2.28;;
10226;SDS011;15634;48.766;2.272;2023-08-21T08:57:55;3.78;;;1.98;;
10226;SDS011;15634;48.766;2.272;2023-08-21T09:00:22;4.90;;;2.10;;
10226;SDS011;15634;48.766;2.272;2023-08-21T09:02:49;5.95;;;2.10;;
10226;SDS011;15634;48.766;2.272;2023-08-21T09:05:15;4.07;;;2.25;;
10226;SDS011;15634;48.766;2.272;2023-08-21T09:07:43;5.82;;;2.03;;
10226;SDS011;15634;48.766;2.272;2023-08-21T09:10:13;4.50;;;2.05;;
10226;SDS011;15634;48.766;2.272;2023-08-21T09:12:41;7.07;;;2.33;;
10226;SDS011;15634;48.766;2.272;2023-08-21T09:15:07;5.20;;;1.83;;
10226;SDS011;15634;48.766;2.272;2023-08-21T09:17:35;4.57;;;2.25;;
10226;SDS011;15634;48.766;2.272;2023-08-21T09:20:04;5.05;;;2.08;;
10226;SDS011;15634;48.766;2.272;2023-08-21T09:22:32;6.88;;;2.15;;
10226;SDS011;15634;48.766;2.272;2023-08-21T09:25:01;4.07;;;2.00;;
10226;SDS011;15634;48.766;2.272;2023-08-21T09:27:31;6.40;;;2.38;;
10226;SDS011;15634;48.766;2.272;2023-08-21T09:29:58;7.22;;;2.17;;
10226;SDS011;15634;48.766;2.272;2023-08-21T09:32:25;5.55;;;2.13;;
10226;SDS011;15634;48.766;2.272;2023-08-21T09:34:52;4.72;;;2.10;;
10226;SDS011;15634;48.766;2.272;2023-08-21T09:37:18;6.65;;;2.28;;
10226;SDS011;15634;48.766;2.272;2023-08-21T09:39:45;5.82;;;2.17;;
10226;SDS011;15634;48.766;2.272;2023-08-21T09:42:13;7.32;;;2.33;;
10226;SDS011;15634;48.766;2.272;2023-08-21T09:44:41;7.13;;;2.40;;
10226;SDS011;15634;48.766;2.272;2023-08-21T09:47:08;5.93;;;1.98;;
10226;SDS011;15634;48.766;2.272;2023-08-21T09:49:36;7.68;;;2.10;;
10226;SDS011;15634;48.766;2.272;2023-08-21T09:52:04;9.73;;;2.60;;
10226;SDS011;15634;48.766;2.272;2023-08-21T09:54:31;4.80;;;2.30;;
10226;SDS011;15634;48.766;2.272;2023-08-21T09:56:58;7.10;;;2.53;;
10226;SDS011;15634;48.766;2.272;2023-08-21T09:59:29;5.25;;;2.30;;
10226;SDS011;15634;48.766;2.272;2023-08-21T10:01:55;7.10;;;2.45;;
10226;SDS011;15634;48.766;2.272;2023-08-21T10:04:25;7.00;;;2.42;;
10226;SDS011;15634;48.766;2.272;2023-08-21T10:06:51;9.57;;;2.90;;
10226;SDS011;15634;48.766;2.272;2023-08-21T10:09:20;6.72;;;2.40;;
10226;SDS011;15634;48.766;2.272;2023-08-21T10:11:47;7.82;;;3.00;;
10226;SDS011;15634;48.766;2.272;2023-08-21T10:14:14;7.07;;;2.78;;
10226;SDS011;15634;48.766;2.272;2023-08-21T10:16:42;6.00;;;2.25;;
10226;SDS011;15634;48.766;2.272;2023-08-21T10:19:12;5.97;;;1.88;;
10226;SDS011;15634;48.766;2.272;2023-08-21T10:21:40;8.00;;;2.35;;
10226;SDS011;15634;48.766;2.272;2023-08-21T10:24:07;7.65;;;2.40;;
10226;SDS011;15634;48.766;2.272;2023-08-21T10:26:37;7.28;;;2.72;;
10226;SDS011;15634;48.766;2.272;2023-08-21T10:29:04;8.68;;;1.92;;
10226;SDS011;15634;48.766;2.272;2023-08-21T10:31:32;8.55;;;2.10;;
10226;SDS011;15634;48.766;2.272;2023-08-21T10:34:02;9.98;;;2.35;;
10226;SDS011;15634;48.766;2.272;2023-08-21T10:39:32;7.70;;;2.13;;
10226;SDS011;15634;48.766;2.272;2023-08-21T10:42:03;4.72;;;1.88;;
10226;SDS011;15634;48.766;2.272;2023-08-21T10:44:37;4.82;;;2.13;;
10226;SDS011;15634;48.766;2.272;2023-08-21T10:47:16;6.57;;;2.40;;
10226;SDS011;15634;48.766;2.272;2023-08-21T10:49:45;4.82;;;1.75;;
10226;SDS011;15634;48.766;2.272;2023-08-21T10:52:13;4.32;;;2.22;;
10226;SDS011;15634;48.766;2.272;2023-08-21T10:54:44;6.45;;;2.15;;
10226;SDS011;15634;48.766;2.272;2023-08-21T10:57:14;5.95;;;2.17;;
10226;SDS011;15634;48.766;2.272;2023-08-21T11:02:26;7.72;;;2.17;;
10226;SDS011;15634;48.766;2.272;2023-08-21T11:04:55;4.85;;;1.92;;
10226;SDS011;15634;48.766;2.272;2023-08-21T11:07:22;7.40;;;2.50;;
10226;SDS011;15634;48.766;2.272;2023-08-21T11:09:49;6.78;;;2.03;;
10226;SDS011;15634;48.766;2.272;2023-08-21T11:12:17;6.45;;;2.17;;
10226;SDS011;15634;48.766;2.272;2023-08-21T11:14:44;6.78;;;2.35;;
10226;SDS011;15634;48.766;2.272;2023-08-21T11:17:12;5.40;;;1.83;;
10226;SDS011;15634;48.766;2.272;2023-08-21T11:19:40;6.45;;;2.45;;
10226;SDS011;15634;48.766;2.272;2023-08-21T11:22:09;6.47;;;2.40;;
10226;SDS011;15634;48.766;2.272;2023-08-21T11:24:40;6.78;;;2.00;;
10226;SDS011;15634;48.766;2.272;2023-08-21T11:27:08;7.15;;;2.40;;
10226;SDS011;15634;48.766;2.272;2023-08-21T11:29:36;6.50;;;2.17;;
10226;SDS011;15634;48.766;2.272;2023-08-21T11:32:05;5.15;;;2.25;;
10226;SDS011;15634;48.766;2.272;2023-08-21T11:34:34;7.85;;;2.53;;
10226;SDS011;15634;48.766;2.272;2023-08-21T11:37:00;5.45;;;2.42;;
10226;SDS011;15634;48.766;2.272;2023-08-21T11:39:28;8.55;;;2.38;;
10226;SDS011;15634;48.766;2.272;2023-08-21T11:42:08;6.45;;;1.90;;
10226;SDS011;15634;48.766;2.272;2023-08-21T11:44:39;8.15;;;2.40;;
10226;SDS011;15634;48.766;2.272;2023-08-21T11:47:06;7.82;;;2.10;;
10226;SDS011;15634;48.766;2.272;2023-08-21T11:49:35;8.60;;;2.33;;
10226;SDS011;15634;48.766;2.272;2023-08-21T11:52:03;6.40;;;2.10;;
10226;SDS011;15634;48.766;2.272;2023-08-21T11:54:33;3.92;;;2.17;;
10226;SDS011;15634;48.766;2.272;2023-08-21T11:57:03;4.25;;;1.90;;
10226;SDS011;15634;48.766;2.272;2023-08-21T11:59:31;3.65;;;2.00;;
10226;SDS011;15634;48.766;2.272;2023-08-21T12:01:57;3.47;;;1.60;;
10226;SDS011;15634;48.766;2.272;2023-08-21T12:04:24;4.53;;;1.70;;
10226;SDS011;15634;48.766;2.272;2023-08-21T12:06:50;7.68;;;2.42;;
10226;SDS011;15634;48.766;2.272;2023-08-21T12:09:18;8.77;;;2.10;;
10226;SDS011;15634;48.766;2.272;2023-08-21T12:11:46;5.88;;;2.00;;
10226;SDS011;15634;48.766;2.272;2023-08-21T12:14:13;4.80;;;2.10;;
10226;SDS011;15634;48.766;2.272;2023-08-21T12:16:39;6.05;;;2.08;;
10226;SDS011;15634;48.766;2.272;2023-08-21T12:19:06;7.20;;;2.10;;
10226;SDS011;15634;48.766;2.272;2023-08-21T12:21:34;4.68;;;1.90;;
10226;SDS011;15634;48.766;2.272;2023-08-21T12:24:03;4.05;;;1.80;;
10226;SDS011;15634;48.766;2.272;2023-08-21T12:26:31;5.00;;;1.83;;
10226;SDS011;15634;48.766;2.272;2023-08-21T12:28:59;6.20;;;1.90;;
10226;SDS011;15634;48.766;2.272;2023-08-21T12:31:27;6.05;;;1.90;;
10226;SDS011;15634;48.766;2.272;2023-08-21T12:33:54;8.60;;;2.17;;
10226;SDS011;15634;48.766;2.272;2023-08-21T12:36:20;6.60;;;1.92;;
10226;SDS011;15634;48.766;2.272;2023-08-21T12:38:47;4.65;;;1.90;;
10226;SDS011;15634;48.766;2.272;2023-08-21T12:41:14;5.72;;;1.83;;
10226;SDS011;15634;48.766;2.272;2023-08-21T12:43:40;4.15;;;1.70;;
10226;SDS011;15634;48.766;2.272;2023-08-21T12:46:08;6.13;;;2.22;;
10226;SDS011;15634;48.766;2.272;2023-08-21T12:48:35;3.65;;;1.83;;
10226;SDS011;15634;48.766;2.272;2023-08-21T12:51:02;4.10;;;2.03;;
10226;SDS011;15634;48.766;2.272;2023-08-21T12:53:28;5.10;;;1.92;;
10226;SDS011;15634;48.766;2.272;2023-08-21T12:55:55;3.35;;;2.10;;
10226;SDS011;15634;48.766;2.272;2023-08-21T12:58:22;5.60;;;1.90;;
10226;SDS011;15634;48.766;2.272;2023-08-21T13:00:48;5.00;;;1.80;;
10226;SDS011;15634;48.766;2.272;2023-08-21T13:03:16;2.33;;;1.70;;
10226;SDS011;15634;48.766;2.272;2023-08-21T13:05:43;3.42;;;1.70;;
10226;SDS011;15634;48.766;2.272;2023-08-21T13:08:09;4.95;;;1.80;;
10226;SDS011;15634;48.766;2.272;2023-08-21T13:10:36;3.83;;;2.10;;
10226;SDS011;15634;48.766;2.272;2023-08-21T13:13:03;4.93;;;1.75;;
10226;SDS011;15634;48.766;2.272;2023-08-21T13:15:29;2.92;;;1.50;;
10226;SDS011;15634;48.766;2.272;2023-08-21T13:17:56;3.75;;;1.83;;
10226;SDS011;15634;48.766;2.272;2023-08-21T13:20:25;3.67;;;1.83;;
10226;SDS011;15634;48.766;2.272;2023-08-21T13:22:51;3.72;;;1.95;;
10226;SDS011;15634;48.766;2.272;2023-08-21T13:25:19;3.67;;;1.70;;
10226;SDS011;15634;48.766;2.272;2023-08-21T13:27:47;3.88;;;1.98;;
10226;SDS011;15634;48.766;2.272;2023-08-21T13:30:14;2.65;;;1.90;;
10226;SDS011;15634;48.766;2.272;2023-08-21T13:32:41;4.50;;;1.90;;
10226;SDS011;15634;48.766;2.272;2023-08-21T13:35:08;5.47;;;2.00;;
10226;SDS011;15634;48.766;2.272;2023-08-21T13:37:36;4.45;;;1.63;;
10226;SDS011;15634;48.766;2.272;2023-08-21T13:40:03;3.75;;;1.80;;
10226;SDS011;15634;48.766;2.272;2023-08-21T13:42:36;4.60;;;2.10;;
10226;SDS011;15634;48.766;2.272;2023-08-21T13:45:06;3.35;;;1.95;;
10226;SDS011;15634;48.766;2.272;2023-08-21T13:47:34;4.60;;;1.98;;
10226;SDS011;15634;48.766;2.272;2023-08-21T13:50:00;5.32;;;2.00;;
10226;SDS011;15634;48.766;2.272;2023-08-21T13:52:27;3.17;;;1.58;;
10226;SDS011;15634;48.766;2.272;2023-08-21T13:54:55;3.35;;;1.60;;
10226;SDS011;15634;48.766;2.272;2023-08-21T13:57:21;3.08;;;1.70;;
10226;SDS011;15634;48.766;2.272;2023-08-21T13:59:48;4.15;;;1.80;;
10226;SDS011;15634;48.766;2.272;2023-08-21T14:02:14;2.47;;;1.67;;
10226;SDS011;15634;48.766;2.272;2023-08-21T14:04:43;4.70;;;2.03;;
10226;SDS011;15634;48.766;2.272;2023-08-21T14:07:10;2.35;;;1.73;;
10226;SDS011;15634;48.766;2.272;2023-08-21T14:09:36;4.15;;;2.20;;
10226;SDS011;15634;48.766;2.272;2023-08-21T14:12:05;3.15;;;1.85;;
10226;SDS011;15634;48.766;2.272;2023-08-21T14:14:32;4.68;;;1.67;;
10226;SDS011;15634;48.766;2.272;2023-08-21T14:16:58;4.03;;;1.90;;
10226;SDS011;15634;48.766;2.272;2023-08-21T14:19:25;2.92;;;1.70;;
10226;SDS011;15634;48.766;2.272;2023-08-21T14:21:51;2.90;;;1.77;;
10226;SDS011;15634;48.766;2.272;2023-08-21T14:24:18;3.30;;;1.73;;
10226;SDS011;15634;48.766;2.272;2023-08-21T14:26:44;6.03;;;2.05;;
10226;SDS011;15634;48.766;2.272;2023-08-21T14:29:12;3.60;;;1.70;;
10226;SDS011;15634;48.766;2.272;2023-08-21T14:31:39;5.72;;;1.80;;
10226;SDS011;15634;48.766;2.272;2023-08-21T14:34:05;4.45;;;1.95;;
10226;SDS011;15634;48.766;2.272;2023-08-21T14:36:32;4.82;;;1.80;;
10226;SDS011;15634;48.766;2.272;2023-08-21T14:38:58;3.47;;;1.70;;
10226;SDS011;15634;48.766;2.272;2023-08-21T14:41:25;3.78;;;2.00;;
10226;SDS011;15634;48.766;2.272;2023-08-21T14:43:52;3.33;;;1.98;;
10226;SDS011;15634;48.766;2.272;2023-08-21T14:46:20;4.72;;;1.83;;
10226;SDS011;15634;48.766;2.272;2023-08-21T14:48:50;5.03;;;2.28;;
10226;SDS011;15634;48.766;2.272;2023-08-21T14:51:17;2.90;;;1.70;;
10226;SDS011;15634;48.766;2.272;2023-08-21T14:53:44;3.83;;;1.83;;